sensor_id;sensor_type;location;lat;lon;timestamp;temperature;humidity
20670;DHT22;10494;50.868;4.180;2023-02-22T00:00:29;5.20;99.90
20670;DHT22;10494;50.868;4.180;2023-02-22T00:03:09;5.20;99.90
20670;DHT22;10494;50.868;4.180;2023-02-22T00:05:35;5.30;99.90
20670;DHT22;10494;50.868;4.180;2023-02-22T00:08:04;5.30;99.90
20670;DHT22;10494;50.868;4.180;2023-02-22T00:10:34;5.20;99.90
20670;DHT22;10494;50.868;4.180;2023-02-22T00:13:03;5.20;99.90
20670;DHT22;10494;50.868;4.180;2023-02-22T00:15:29;5.40;99.90
20670;DHT22;10494;50.868;4.180;2023-02-22T00:17:55;5.50;99.90
20670;DHT22;10494;50.868;4.180;2023-02-22T00:20:22;5.60;99.90
20670;DHT22;10494;50.868;4.180;2023-02-22T00:22:48;5.70;99.90
20670;DHT22;10494;50.868;4.180;2023-02-22T00:25:18;5.70;99.90
20670;DHT22;10494;50.868;4.180;2023-02-22T00:27:44;5.70;99.90
20670;DHT22;10494;50.868;4.180;2023-02-22T00:30:18;5.60;99.90
20670;DHT22;10494;50.868;4.180;2023-02-22T00:32:48;5.60;99.90
20670;DHT22;10494;50.868;4.180;2023-02-22T00:35:17;5.70;99.90
20670;DHT22;10494;50.868;4.180;2023-02-22T00:37:47;5.70;99.90
20670;DHT22;10494;50.868;4.180;2023-02-22T00:40:16;5.80;99.90
20670;DHT22;10494;50.868;4.180;2023-02-22T00:42:42;5.80;99.90
20670;DHT22;10494;50.868;4.180;2023-02-22T00:45:08;5.80;99.90
20670;DHT22;10494;50.868;4.180;2023-02-22T00:47:34;5.80;99.90
20670;DHT22;10494;50.868;4.180;2023-02-22T00:50:00;5.80;99.90
20670;DHT22;10494;50.868;4.180;2023-02-22T00:52:26;5.80;99.90
20670;DHT22;10494;50.868;4.180;2023-02-22T00:54:53;5.80;99.90
20670;DHT22;10494;50.868;4.180;2023-02-22T00:57:20;5.90;99.90
20670;DHT22;10494;50.868;4.180;2023-02-22T00:59:45;6.00;99.90
20670;DHT22;10494;50.868;4.180;2023-02-22T01:02:11;5.90;99.90
20670;DHT22;10494;50.868;4.180;2023-02-22T01:04:37;6.00;99.90
20670;DHT22;10494;50.868;4.180;2023-02-22T01:07:03;6.00;99.90
20670;DHT22;10494;50.868;4.180;2023-02-22T01:09:29;6.10;99.90
20670;DHT22;10494;50.868;4.180;2023-02-22T01:11:55;6.20;99.90
20670;DHT22;10494;50.868;4.180;2023-02-22T01:14:25;6.20;99.90
20670;DHT22;10494;50.868;4.180;2023-02-22T01:16:52;6.10;99.90
20670;DHT22;10494;50.868;4.180;2023-02-22T01:19:19;6.10;99.90
20670;DHT22;10494;50.868;4.180;2023-02-22T01:21:45;5.90;99.90
20670;DHT22;10494;50.868;4.180;2023-02-22T01:24:12;5.80;99.90
20670;DHT22;10494;50.868;4.180;2023-02-22T01:26:48;5.90;99.90
20670;DHT22;10494;50.868;4.180;2023-02-22T01:29:15;6.00;99.90
20670;DHT22;10494;50.868;4.180;2023-02-22T01:31:42;6.00;99.90
20670;DHT22;10494;50.868;4.180;2023-02-22T01:34:10;6.10;99.90
20670;DHT22;10494;50.868;4.180;2023-02-22T01:36:37;6.20;99.90
20670;DHT22;10494;50.868;4.180;2023-02-22T01:39:04;6.10;99.90
20670;DHT22;10494;50.868;4.180;2023-02-22T01:41:31;6.20;99.90
20670;DHT22;10494;50.868;4.180;2023-02-22T01:43:56;6.20;99.90
20670;DHT22;10494;50.868;4.180;2023-02-22T01:46:26;6.20;99.90
20670;DHT22;10494;50.868;4.180;2023-02-22T01:49:01;6.20;99.90
20670;DHT22;10494;50.868;4.180;2023-02-22T01:51:31;6.30;99.90
20670;DHT22;10494;50.868;4.180;2023-02-22T01:54:12;6.30;99.90
20670;DHT22;10494;50.868;4.180;2023-02-22T01:56:46;6.30;99.90
20670;DHT22;10494;50.868;4.180;2023-02-22T01:59:15;6.30;99.90
20670;DHT22;10494;50.868;4.180;2023-02-22T02:01:42;6.30;99.90
20670;DHT22;10494;50.868;4.180;2023-02-22T02:04:18;6.30;99.90
20670;DHT22;10494;50.868;4.180;2023-02-22T02:06:44;6.30;99.90
20670;DHT22;10494;50.868;4.180;2023-02-22T02:11:43;6.30;99.90
20670;DHT22;10494;50.868;4.180;2023-02-22T02:14:10;6.30;99.90
20670;DHT22;10494;50.868;4.180;2023-02-22T02:16:45;6.40;99.90
20670;DHT22;10494;50.868;4.180;2023-02-22T02:19:24;6.40;99.90
20670;DHT22;10494;50.868;4.180;2023-02-22T02:27:11;6.40;99.90
20670;DHT22;10494;50.868;4.180;2023-02-22T02:32:35;6.40;99.90
20670;DHT22;10494;50.868;4.180;2023-02-22T02:35:24;6.40;99.90
20670;DHT22;10494;50.868;4.180;2023-02-22T02:45:55;6.30;99.90
20670;DHT22;10494;50.868;4.180;2023-02-22T02:48:27;6.20;99.90
20670;DHT22;10494;50.868;4.180;2023-02-22T02:50:55;6.10;99.90
20670;DHT22;10494;50.868;4.180;2023-02-22T02:53:26;6.10;99.90
20670;DHT22;10494;50.868;4.180;2023-02-22T02:55:52;6.10;99.90
20670;DHT22;10494;50.868;4.180;2023-02-22T02:58:21;6.10;99.90
20670;DHT22;10494;50.868;4.180;2023-02-22T03:00:49;6.10;99.90
20670;DHT22;10494;50.868;4.180;2023-02-22T03:03:34;6.10;99.90
20670;DHT22;10494;50.868;4.180;2023-02-22T03:06:15;6.00;99.90
20670;DHT22;10494;50.868;4.180;2023-02-22T03:12:30;6.10;99.90
20670;DHT22;10494;50.868;4.180;2023-02-22T03:17:53;6.00;99.90
20670;DHT22;10494;50.868;4.180;2023-02-22T03:20:31;6.00;99.90
20670;DHT22;10494;50.868;4.180;2023-02-22T03:25:47;6.10;99.90
20670;DHT22;10494;50.868;4.180;2023-02-22T03:28:16;6.00;99.90
20670;DHT22;10494;50.868;4.180;2023-02-22T03:31:00;6.00;99.90
20670;DHT22;10494;50.868;4.180;2023-02-22T03:33:40;6.00;99.90
20670;DHT22;10494;50.868;4.180;2023-02-22T03:36:26;6.00;99.90
20670;DHT22;10494;50.868;4.180;2023-02-22T03:38:54;6.00;99.90
20670;DHT22;10494;50.868;4.180;2023-02-22T03:41:23;5.90;99.90
20670;DHT22;10494;50.868;4.180;2023-02-22T03:43:53;5.90;99.90
20670;DHT22;10494;50.868;4.180;2023-02-22T03:46:20;5.80;99.90
20670;DHT22;10494;50.868;4.180;2023-02-22T03:48:51;5.80;99.90
20670;DHT22;10494;50.868;4.180;2023-02-22T03:51:19;5.80;99.90
20670;DHT22;10494;50.868;4.180;2023-02-22T03:53:45;5.80;99.90
20670;DHT22;10494;50.868;4.180;2023-02-22T03:56:19;5.80;99.90
20670;DHT22;10494;50.868;4.180;2023-02-22T03:58:47;5.90;99.90
20670;DHT22;10494;50.868;4.180;2023-02-22T04:01:13;5.80;99.90
20670;DHT22;10494;50.868;4.180;2023-02-22T04:03:39;5.90;99.90
20670;DHT22;10494;50.868;4.180;2023-02-22T04:06:07;5.90;99.90
20670;DHT22;10494;50.868;4.180;2023-02-22T04:08:32;5.90;99.90
20670;DHT22;10494;50.868;4.180;2023-02-22T04:10:58;6.00;99.90
20670;DHT22;10494;50.868;4.180;2023-02-22T04:13:24;6.00;99.90
20670;DHT22;10494;50.868;4.180;2023-02-22T04:15:49;5.80;99.90
20670;DHT22;10494;50.868;4.180;2023-02-22T04:18:15;5.90;99.90
20670;DHT22;10494;50.868;4.180;2023-02-22T04:20:42;5.80;99.90
20670;DHT22;10494;50.868;4.180;2023-02-22T04:23:09;5.80;99.90
20670;DHT22;10494;50.868;4.180;2023-02-22T04:25:35;5.90;99.90
20670;DHT22;10494;50.868;4.180;2023-02-22T04:28:00;5.90;99.90
20670;DHT22;10494;50.868;4.180;2023-02-22T04:30:26;5.80;99.90
20670;DHT22;10494;50.868;4.180;2023-02-22T04:32:54;5.70;99.90
20670;DHT22;10494;50.868;4.180;2023-02-22T04:35:20;5.70;99.90
20670;DHT22;10494;50.868;4.180;2023-02-22T04:37:46;5.70;99.90
20670;DHT22;10494;50.868;4.180;2023-02-22T04:40:12;5.70;99.90
20670;DHT22;10494;50.868;4.180;2023-02-22T04:42:38;5.70;99.90
20670;DHT22;10494;50.868;4.180;2023-02-22T04:45:05;5.70;99.90
20670;DHT22;10494;50.868;4.180;2023-02-22T04:47:32;5.80;99.90
20670;DHT22;10494;50.868;4.180;2023-02-22T04:49:58;5.70;99.90
20670;DHT22;10494;50.868;4.180;2023-02-22T04:52:25;5.70;99.90
20670;DHT22;10494;50.868;4.180;2023-02-22T04:54:51;5.70;99.90
20670;DHT22;10494;50.868;4.180;2023-02-22T04:57:16;5.70;99.90
20670;DHT22;10494;50.868;4.180;2023-02-22T04:59:42;5.70;99.90
20670;DHT22;10494;50.868;4.180;2023-02-22T05:02:08;5.70;99.90
20670;DHT22;10494;50.868;4.180;2023-02-22T05:04:37;5.60;99.90
20670;DHT22;10494;50.868;4.180;2023-02-22T05:07:02;5.80;99.90
20670;DHT22;10494;50.868;4.180;2023-02-22T05:09:28;5.80;99.90
20670;DHT22;10494;50.868;4.180;2023-02-22T05:11:54;5.80;99.90
20670;DHT22;10494;50.868;4.180;2023-02-22T05:14:19;5.90;99.90
20670;DHT22;10494;50.868;4.180;2023-02-22T05:16:47;5.80;99.90
20670;DHT22;10494;50.868;4.180;2023-02-22T05:19:13;5.80;99.90
20670;DHT22;10494;50.868;4.180;2023-02-22T05:21:39;5.80;99.90
20670;DHT22;10494;50.868;4.180;2023-02-22T05:24:05;5.70;99.90
20670;DHT22;10494;50.868;4.180;2023-02-22T05:26:31;5.70;99.90
20670;DHT22;10494;50.868;4.180;2023-02-22T05:28:56;5.70;99.90
20670;DHT22;10494;50.868;4.180;2023-02-22T05:31:22;5.70;99.90
20670;DHT22;10494;50.868;4.180;2023-02-22T05:33:47;5.70;99.90
20670;DHT22;10494;50.868;4.180;2023-02-22T05:36:13;5.70;99.90
20670;DHT22;10494;50.868;4.180;2023-02-22T05:38:38;5.80;99.90
20670;DHT22;10494;50.868;4.180;2023-02-22T05:41:08;5.80;99.90
20670;DHT22;10494;50.868;4.180;2023-02-22T05:43:35;5.80;99.90
20670;DHT22;10494;50.868;4.180;2023-02-22T05:46:01;5.80;99.90
20670;DHT22;10494;50.868;4.180;2023-02-22T05:48:26;5.80;99.90
20670;DHT22;10494;50.868;4.180;2023-02-22T05:50:52;5.80;99.90
20670;DHT22;10494;50.868;4.180;2023-02-22T05:53:18;5.80;99.90
20670;DHT22;10494;50.868;4.180;2023-02-22T05:55:43;5.80;99.90
20670;DHT22;10494;50.868;4.180;2023-02-22T05:58:09;5.80;99.90
20670;DHT22;10494;50.868;4.180;2023-02-22T06:00:36;5.80;99.90
20670;DHT22;10494;50.868;4.180;2023-02-22T06:03:06;5.70;99.90
20670;DHT22;10494;50.868;4.180;2023-02-22T06:05:34;5.70;99.90
20670;DHT22;10494;50.868;4.180;2023-02-22T06:07:59;5.80;99.90
20670;DHT22;10494;50.868;4.180;2023-02-22T06:10:26;5.90;99.90
20670;DHT22;10494;50.868;4.180;2023-02-22T06:12:52;5.60;99.90
20670;DHT22;10494;50.868;4.180;2023-02-22T06:15:20;5.50;99.90
20670;DHT22;10494;50.868;4.180;2023-02-22T06:17:46;5.50;99.90
20670;DHT22;10494;50.868;4.180;2023-02-22T06:20:14;5.60;99.90
20670;DHT22;10494;50.868;4.180;2023-02-22T06:22:41;5.60;99.90
20670;DHT22;10494;50.868;4.180;2023-02-22T06:25:08;5.60;99.90
20670;DHT22;10494;50.868;4.180;2023-02-22T06:27:34;5.70;99.90
20670;DHT22;10494;50.868;4.180;2023-02-22T06:30:00;5.70;99.90
20670;DHT22;10494;50.868;4.180;2023-02-22T06:32:26;5.80;99.90
20670;DHT22;10494;50.868;4.180;2023-02-22T06:34:52;5.80;99.90
20670;DHT22;10494;50.868;4.180;2023-02-22T06:37:18;5.80;99.90
20670;DHT22;10494;50.868;4.180;2023-02-22T06:39:43;5.80;99.90
20670;DHT22;10494;50.868;4.180;2023-02-22T06:42:09;5.80;99.90
20670;DHT22;10494;50.868;4.180;2023-02-22T06:44:34;5.80;99.90
20670;DHT22;10494;50.868;4.180;2023-02-22T06:47:00;5.80;99.90
20670;DHT22;10494;50.868;4.180;2023-02-22T06:49:26;5.80;99.90
20670;DHT22;10494;50.868;4.180;2023-02-22T06:51:52;5.80;99.90
20670;DHT22;10494;50.868;4.180;2023-02-22T06:54:18;5.90;99.90
20670;DHT22;10494;50.868;4.180;2023-02-22T06:56:44;5.80;99.90
20670;DHT22;10494;50.868;4.180;2023-02-22T06:59:09;5.70;99.90
20670;DHT22;10494;50.868;4.180;2023-02-22T07:01:35;5.60;99.90
20670;DHT22;10494;50.868;4.180;2023-02-22T07:04:00;5.70;99.90
20670;DHT22;10494;50.868;4.180;2023-02-22T07:06:26;5.60;99.90
20670;DHT22;10494;50.868;4.180;2023-02-22T07:08:52;5.60;99.90
20670;DHT22;10494;50.868;4.180;2023-02-22T07:11:17;5.70;99.90
20670;DHT22;10494;50.868;4.180;2023-02-22T07:13:43;5.80;99.90
20670;DHT22;10494;50.868;4.180;2023-02-22T07:16:08;5.90;99.90
20670;DHT22;10494;50.868;4.180;2023-02-22T07:18:34;5.90;99.90
20670;DHT22;10494;50.868;4.180;2023-02-22T07:20:59;5.90;99.90
20670;DHT22;10494;50.868;4.180;2023-02-22T07:23:25;5.90;99.90
20670;DHT22;10494;50.868;4.180;2023-02-22T07:25:51;6.10;99.90
20670;DHT22;10494;50.868;4.180;2023-02-22T07:28:17;6.20;99.90
20670;DHT22;10494;50.868;4.180;2023-02-22T07:30:42;6.10;99.90
20670;DHT22;10494;50.868;4.180;2023-02-22T07:33:10;6.20;99.90
20670;DHT22;10494;50.868;4.180;2023-02-22T07:35:47;6.40;99.90
20670;DHT22;10494;50.868;4.180;2023-02-22T07:38:15;6.50;99.90
20670;DHT22;10494;50.868;4.180;2023-02-22T07:40:42;6.70;99.90
20670;DHT22;10494;50.868;4.180;2023-02-22T07:43:25;6.80;99.90
20670;DHT22;10494;50.868;4.180;2023-02-22T07:45:53;6.90;99.90
20670;DHT22;10494;50.868;4.180;2023-02-22T07:48:21;6.90;99.90
20670;DHT22;10494;50.868;4.180;2023-02-22T07:50:47;7.00;99.90
20670;DHT22;10494;50.868;4.180;2023-02-22T07:55:42;7.10;99.90
20670;DHT22;10494;50.868;4.180;2023-02-22T07:58:08;7.20;99.90
20670;DHT22;10494;50.868;4.180;2023-02-22T08:00:38;7.20;99.90
20670;DHT22;10494;50.868;4.180;2023-02-22T08:03:06;7.20;99.90
20670;DHT22;10494;50.868;4.180;2023-02-22T08:05:34;7.30;99.90
20670;DHT22;10494;50.868;4.180;2023-02-22T08:07:59;7.20;99.90
20670;DHT22;10494;50.868;4.180;2023-02-22T08:10:26;7.20;99.90
20670;DHT22;10494;50.868;4.180;2023-02-22T08:12:53;7.30;99.90
20670;DHT22;10494;50.868;4.180;2023-02-22T08:15:27;7.40;99.90
20670;DHT22;10494;50.868;4.180;2023-02-22T08:17:53;7.30;99.90
20670;DHT22;10494;50.868;4.180;2023-02-22T08:20:20;7.40;99.90
20670;DHT22;10494;50.868;4.180;2023-02-22T08:22:46;7.40;99.90
20670;DHT22;10494;50.868;4.180;2023-02-22T08:25:14;7.40;99.90
20670;DHT22;10494;50.868;4.180;2023-02-22T08:27:40;7.40;99.90
20670;DHT22;10494;50.868;4.180;2023-02-22T08:30:07;7.60;99.90
20670;DHT22;10494;50.868;4.180;2023-02-22T08:32:33;7.70;99.90
20670;DHT22;10494;50.868;4.180;2023-02-22T08:35:02;7.80;99.90
20670;DHT22;10494;50.868;4.180;2023-02-22T08:37:28;7.80;99.90
20670;DHT22;10494;50.868;4.180;2023-02-22T08:39:54;7.90;99.90
20670;DHT22;10494;50.868;4.180;2023-02-22T08:42:20;7.70;99.90
20670;DHT22;10494;50.868;4.180;2023-02-22T08:44:46;7.70;99.90
20670;DHT22;10494;50.868;4.180;2023-02-22T08:47:12;7.60;99.90
20670;DHT22;10494;50.868;4.180;2023-02-22T08:49:37;7.50;99.90
20670;DHT22;10494;50.868;4.180;2023-02-22T08:52:03;7.50;99.90
20670;DHT22;10494;50.868;4.180;2023-02-22T08:54:29;7.50;99.90
20670;DHT22;10494;50.868;4.180;2023-02-22T08:56:55;7.50;99.90
20670;DHT22;10494;50.868;4.180;2023-02-22T08:59:20;7.60;99.90
20670;DHT22;10494;50.868;4.180;2023-02-22T09:01:46;7.70;99.90
20670;DHT22;10494;50.868;4.180;2023-02-22T09:04:12;7.80;99.90
20670;DHT22;10494;50.868;4.180;2023-02-22T09:06:40;8.10;99.90
20670;DHT22;10494;50.868;4.180;2023-02-22T09:09:06;8.30;99.90
20670;DHT22;10494;50.868;4.180;2023-02-22T09:11:32;8.70;99.90
20670;DHT22;10494;50.868;4.180;2023-02-22T09:13:58;8.80;99.90
20670;DHT22;10494;50.868;4.180;2023-02-22T09:16:23;9.00;99.90
20670;DHT22;10494;50.868;4.180;2023-02-22T09:18:49;9.20;99.90
20670;DHT22;10494;50.868;4.180;2023-02-22T09:21:14;9.40;99.90
20670;DHT22;10494;50.868;4.180;2023-02-22T09:23:40;9.50;99.90
20670;DHT22;10494;50.868;4.180;2023-02-22T09:26:09;9.60;99.90
20670;DHT22;10494;50.868;4.180;2023-02-22T09:28:37;9.60;99.90
20670;DHT22;10494;50.868;4.180;2023-02-22T09:31:02;9.60;99.90
20670;DHT22;10494;50.868;4.180;2023-02-22T09:33:28;9.80;99.90
20670;DHT22;10494;50.868;4.180;2023-02-22T09:35:53;9.90;99.90
20670;DHT22;10494;50.868;4.180;2023-02-22T09:38:21;10.00;99.90
20670;DHT22;10494;50.868;4.180;2023-02-22T09:41:11;10.20;99.90
20670;DHT22;10494;50.868;4.180;2023-02-22T09:43:47;10.20;99.90
20670;DHT22;10494;50.868;4.180;2023-02-22T09:46:36;10.20;99.90
20670;DHT22;10494;50.868;4.180;2023-02-22T09:52:02;10.60;99.90
20670;DHT22;10494;50.868;4.180;2023-02-22T09:54:49;10.90;99.90
20670;DHT22;10494;50.868;4.180;2023-02-22T09:57:31;11.10;99.90
20670;DHT22;10494;50.868;4.180;2023-02-22T10:00:19;11.20;99.90
20670;DHT22;10494;50.868;4.180;2023-02-22T10:05:26;11.40;99.90
20670;DHT22;10494;50.868;4.180;2023-02-22T10:07:59;11.50;99.90
20670;DHT22;10494;50.868;4.180;2023-02-22T10:10:35;11.60;99.90
20670;DHT22;10494;50.868;4.180;2023-02-22T10:13:27;11.80;99.90
20670;DHT22;10494;50.868;4.180;2023-02-22T10:26:35;12.70;99.90
20670;DHT22;10494;50.868;4.180;2023-02-22T10:29:38;12.90;99.90
20670;DHT22;10494;50.868;4.180;2023-02-22T10:32:07;13.20;99.90
20670;DHT22;10494;50.868;4.180;2023-02-22T10:34:47;13.40;99.90
20670;DHT22;10494;50.868;4.180;2023-02-22T10:37:22;13.30;99.90
20670;DHT22;10494;50.868;4.180;2023-02-22T10:39:52;13.40;99.90
20670;DHT22;10494;50.868;4.180;2023-02-22T10:42:23;13.50;99.90
20670;DHT22;10494;50.868;4.180;2023-02-22T10:44:49;13.50;99.90
20670;DHT22;10494;50.868;4.180;2023-02-22T10:47:15;13.70;99.90
20670;DHT22;10494;50.868;4.180;2023-02-22T10:49:52;13.70;99.90
20670;DHT22;10494;50.868;4.180;2023-02-22T10:52:27;13.60;99.90
20670;DHT22;10494;50.868;4.180;2023-02-22T10:54:56;13.50;99.90
20670;DHT22;10494;50.868;4.180;2023-02-22T10:57:28;13.40;99.90
20670;DHT22;10494;50.868;4.180;2023-02-22T10:59:55;13.30;99.90
20670;DHT22;10494;50.868;4.180;2023-02-22T11:02:30;13.30;99.90
20670;DHT22;10494;50.868;4.180;2023-02-22T11:04:58;13.20;99.90
20670;DHT22;10494;50.868;4.180;2023-02-22T11:07:31;13.10;99.90
20670;DHT22;10494;50.868;4.180;2023-02-22T11:09:59;13.10;99.90
20670;DHT22;10494;50.868;4.180;2023-02-22T11:14:56;13.10;99.90
20670;DHT22;10494;50.868;4.180;2023-02-22T11:17:31;13.00;99.90
20670;DHT22;10494;50.868;4.180;2023-02-22T11:19:57;12.90;99.90
20670;DHT22;10494;50.868;4.180;2023-02-22T11:22:27;12.90;99.90
20670;DHT22;10494;50.868;4.180;2023-02-22T11:24:59;12.70;99.90
20670;DHT22;10494;50.868;4.180;2023-02-22T11:27:39;12.70;99.90
20670;DHT22;10494;50.868;4.180;2023-02-22T11:32:53;12.90;99.90
20670;DHT22;10494;50.868;4.180;2023-02-22T11:35:35;13.00;99.90
20670;DHT22;10494;50.868;4.180;2023-02-22T11:38:27;13.20;99.90
20670;DHT22;10494;50.868;4.180;2023-02-22T11:41:16;13.20;99.90
20670;DHT22;10494;50.868;4.180;2023-02-22T11:43:47;13.30;99.90
20670;DHT22;10494;50.868;4.180;2023-02-22T11:46:24;13.50;99.90
20670;DHT22;10494;50.868;4.180;2023-02-22T11:49:01;13.50;99.90
20670;DHT22;10494;50.868;4.180;2023-02-22T11:51:41;13.50;99.90
20670;DHT22;10494;50.868;4.180;2023-02-22T12:03:00;13.30;99.90
20670;DHT22;10494;50.868;4.180;2023-02-22T12:14:05;12.90;99.90
20670;DHT22;10494;50.868;4.180;2023-02-22T12:16:56;12.90;99.90
20670;DHT22;10494;50.868;4.180;2023-02-22T12:19:27;12.80;99.90
20670;DHT22;10494;50.868;4.180;2023-02-22T12:22:06;12.80;99.90
20670;DHT22;10494;50.868;4.180;2023-02-22T12:24:45;12.80;99.90
20670;DHT22;10494;50.868;4.180;2023-02-22T12:27:35;12.70;99.90
20670;DHT22;10494;50.868;4.180;2023-02-22T12:30:07;12.80;99.90
20670;DHT22;10494;50.868;4.180;2023-02-22T12:32:46;12.90;99.90
20670;DHT22;10494;50.868;4.180;2023-02-22T12:35:35;12.90;99.90
20670;DHT22;10494;50.868;4.180;2023-02-22T12:38:44;13.00;99.90
20670;DHT22;10494;50.868;4.180;2023-02-22T12:41:57;13.10;99.90
20670;DHT22;10494;50.868;4.180;2023-02-22T12:44:09;13.30;99.90
20670;DHT22;10494;50.868;4.180;2023-02-22T12:46:42;13.40;99.90
20670;DHT22;10494;50.868;4.180;2023-02-22T12:49:20;13.30;99.90
20670;DHT22;10494;50.868;4.180;2023-02-22T13:00:08;13.10;99.90
20670;DHT22;10494;50.868;4.180;2023-02-22T13:02:41;12.90;99.90
20670;DHT22;10494;50.868;4.180;2023-02-22T13:05:15;12.90;99.90
20670;DHT22;10494;50.868;4.180;2023-02-22T13:13:27;13.20;99.90
20670;DHT22;10494;50.868;4.180;2023-02-22T13:16:07;13.20;99.90
20670;DHT22;10494;50.868;4.180;2023-02-22T13:23:54;12.50;99.90
20670;DHT22;10494;50.868;4.180;2023-02-22T13:26:38;12.50;99.90
20670;DHT22;10494;50.868;4.180;2023-02-22T13:29:18;12.50;99.90
20670;DHT22;10494;50.868;4.180;2023-02-22T13:43:23;12.20;99.90
20670;DHT22;10494;50.868;4.180;2023-02-22T13:49:14;12.30;99.90
20670;DHT22;10494;50.868;4.180;2023-02-22T13:51:48;12.30;99.90
20670;DHT22;10494;50.868;4.180;2023-02-22T13:54:36;12.20;99.90
20670;DHT22;10494;50.868;4.180;2023-02-22T13:57:19;12.40;99.90
20670;DHT22;10494;50.868;4.180;2023-02-22T13:59:45;12.20;99.90
20670;DHT22;10494;50.868;4.180;2023-02-22T14:02:32;12.20;99.90
20670;DHT22;10494;50.868;4.180;2023-02-22T14:05:54;12.30;99.90
20670;DHT22;10494;50.868;4.180;2023-02-22T14:10:54;12.20;99.90
20670;DHT22;10494;50.868;4.180;2023-02-22T14:13:22;11.90;99.90
20670;DHT22;10494;50.868;4.180;2023-02-22T14:21:07;11.90;99.90
20670;DHT22;10494;50.868;4.180;2023-02-22T14:29:00;12.00;99.90
20670;DHT22;10494;50.868;4.180;2023-02-22T14:31:55;12.10;99.90
20670;DHT22;10494;50.868;4.180;2023-02-22T14:34:40;12.00;99.90
20670;DHT22;10494;50.868;4.180;2023-02-22T14:37:16;11.70;99.90
20670;DHT22;10494;50.868;4.180;2023-02-22T14:39:51;11.40;99.90
20670;DHT22;10494;50.868;4.180;2023-02-22T14:47:30;11.30;99.90
20670;DHT22;10494;50.868;4.180;2023-02-22T14:50:07;11.40;99.90
20670;DHT22;10494;50.868;4.180;2023-02-22T14:52:38;11.50;99.90
20670;DHT22;10494;50.868;4.180;2023-02-22T14:55:16;11.60;99.90
20670;DHT22;10494;50.868;4.180;2023-02-22T14:58:01;11.60;99.90
20670;DHT22;10494;50.868;4.180;2023-02-22T15:00:40;11.70;99.90
20670;DHT22;10494;50.868;4.180;2023-02-22T15:05:54;11.60;99.90
20670;DHT22;10494;50.868;4.180;2023-02-22T15:08:19;11.70;99.90
20670;DHT22;10494;50.868;4.180;2023-02-22T15:10:52;11.60;99.90
20670;DHT22;10494;50.868;4.180;2023-02-22T15:13:26;11.50;99.90
20670;DHT22;10494;50.868;4.180;2023-02-22T15:16:13;11.30;99.90
20670;DHT22;10494;50.868;4.180;2023-02-22T15:18:41;11.20;99.90
20670;DHT22;10494;50.868;4.180;2023-02-22T15:21:16;11.10;99.90
20670;DHT22;10494;50.868;4.180;2023-02-22T15:23:55;11.10;99.90
20670;DHT22;10494;50.868;4.180;2023-02-22T15:26:34;11.10;99.90
20670;DHT22;10494;50.868;4.180;2023-02-22T15:29:19;11.10;99.90
20670;DHT22;10494;50.868;4.180;2023-02-22T15:32:35;11.20;99.90
20670;DHT22;10494;50.868;4.180;2023-02-22T15:35:27;11.00;99.90
20670;DHT22;10494;50.868;4.180;2023-02-22T15:40:39;10.90;99.90
20670;DHT22;10494;50.868;4.180;2023-02-22T15:43:22;10.90;99.90
20670;DHT22;10494;50.868;4.180;2023-02-22T15:45:52;10.70;99.90
20670;DHT22;10494;50.868;4.180;2023-02-22T15:48:18;10.60;99.90
20670;DHT22;10494;50.868;4.180;2023-02-22T15:51:09;10.60;99.90
20670;DHT22;10494;50.868;4.180;2023-02-22T15:53:47;10.60;99.90
20670;DHT22;10494;50.868;4.180;2023-02-22T15:56:16;10.60;99.90
20670;DHT22;10494;50.868;4.180;2023-02-22T15:58:43;10.70;99.90
20670;DHT22;10494;50.868;4.180;2023-02-22T16:01:14;10.70;99.90
20670;DHT22;10494;50.868;4.180;2023-02-22T16:03:56;10.70;99.90
20670;DHT22;10494;50.868;4.180;2023-02-22T16:08:53;10.70;99.90
20670;DHT22;10494;50.868;4.180;2023-02-22T16:11:41;10.70;99.90
20670;DHT22;10494;50.868;4.180;2023-02-22T16:17:36;10.60;99.90
20670;DHT22;10494;50.868;4.180;2023-02-22T16:22:56;10.60;99.90
20670;DHT22;10494;50.868;4.180;2023-02-22T16:25:26;10.40;99.90
20670;DHT22;10494;50.868;4.180;2023-02-22T16:27:56;10.40;99.90
20670;DHT22;10494;50.868;4.180;2023-02-22T16:30:29;10.40;99.90
20670;DHT22;10494;50.868;4.180;2023-02-22T16:33:01;10.60;99.90
20670;DHT22;10494;50.868;4.180;2023-02-22T16:35:33;10.60;99.90
20670;DHT22;10494;50.868;4.180;2023-02-22T16:38:05;10.60;99.90
20670;DHT22;10494;50.868;4.180;2023-02-22T16:40:39;10.60;99.90
20670;DHT22;10494;50.868;4.180;2023-02-22T16:43:12;10.60;99.90
20670;DHT22;10494;50.868;4.180;2023-02-22T16:45:39;10.70;99.90
20670;DHT22;10494;50.868;4.180;2023-02-22T16:48:14;10.70;99.90
20670;DHT22;10494;50.868;4.180;2023-02-22T16:50:40;10.70;99.90
20670;DHT22;10494;50.868;4.180;2023-02-22T16:53:05;10.60;99.90
20670;DHT22;10494;50.868;4.180;2023-02-22T16:55:31;10.60;99.90
20670;DHT22;10494;50.868;4.180;2023-02-22T16:57:57;10.60;99.90
20670;DHT22;10494;50.868;4.180;2023-02-22T17:00:26;10.60;99.90
20670;DHT22;10494;50.868;4.180;2023-02-22T17:03:01;10.60;99.90
20670;DHT22;10494;50.868;4.180;2023-02-22T17:05:29;10.50;99.90
20670;DHT22;10494;50.868;4.180;2023-02-22T17:07:55;10.60;99.90
20670;DHT22;10494;50.868;4.180;2023-02-22T17:10:20;10.60;99.90
20670;DHT22;10494;50.868;4.180;2023-02-22T17:12:50;10.50;99.90
20670;DHT22;10494;50.868;4.180;2023-02-22T17:15:26;10.50;99.90
20670;DHT22;10494;50.868;4.180;2023-02-22T17:17:52;10.60;99.90
20670;DHT22;10494;50.868;4.180;2023-02-22T17:20:18;10.60;99.90
20670;DHT22;10494;50.868;4.180;2023-02-22T17:22:58;10.60;99.90
20670;DHT22;10494;50.868;4.180;2023-02-22T17:25:30;10.60;99.90
20670;DHT22;10494;50.868;4.180;2023-02-22T17:28:13;10.70;99.90
20670;DHT22;10494;50.868;4.180;2023-02-22T17:30:39;10.70;99.90
20670;DHT22;10494;50.868;4.180;2023-02-22T17:33:07;10.70;99.90
20670;DHT22;10494;50.868;4.180;2023-02-22T17:35:35;10.60;99.90
20670;DHT22;10494;50.868;4.180;2023-02-22T17:38:02;10.60;99.90
20670;DHT22;10494;50.868;4.180;2023-02-22T17:40:32;10.60;99.90
20670;DHT22;10494;50.868;4.180;2023-02-22T17:42:59;10.60;99.90
20670;DHT22;10494;50.868;4.180;2023-02-22T17:45:26;10.70;99.90
20670;DHT22;10494;50.868;4.180;2023-02-22T17:47:52;10.60;99.90
20670;DHT22;10494;50.868;4.180;2023-02-22T17:50:19;10.50;99.90
20670;DHT22;10494;50.868;4.180;2023-02-22T17:52:45;10.50;99.90
20670;DHT22;10494;50.868;4.180;2023-02-22T17:55:12;10.40;99.90
20670;DHT22;10494;50.868;4.180;2023-02-22T17:57:39;10.50;99.90
20670;DHT22;10494;50.868;4.180;2023-02-22T18:00:13;10.40;99.90
20670;DHT22;10494;50.868;4.180;2023-02-22T18:02:43;10.30;99.90
20670;DHT22;10494;50.868;4.180;2023-02-22T18:05:12;10.30;99.90
20670;DHT22;10494;50.868;4.180;2023-02-22T18:07:43;10.30;99.90
20670;DHT22;10494;50.868;4.180;2023-02-22T18:10:11;10.20;99.90
20670;DHT22;10494;50.868;4.180;2023-02-22T18:12:40;10.20;99.90
20670;DHT22;10494;50.868;4.180;2023-02-22T18:15:09;10.20;99.90
20670;DHT22;10494;50.868;4.180;2023-02-22T18:17:45;10.10;99.90